Time;durP1;ratioP1;P1;durP2;ratioP2;P2;SDS_P1;SDS_P2;PMS_P1;PMS_P2;Temp;Humidity;BMP_temperature;BMP_pressure;BME280_temperature;BME280_humidity;BME280_pressure;Samples;Min_cycle;Max_cycle;Signal;HPM_P1;HPM_P2
2022/08/01 00:00:47;;;;;;;15.88;9.63;;;;;;;24.44;61.67;101493.81;5081566;28;20050;-73
2022/08/01 00:03:15;;;;;;;14.60;10.20;;;;;;;24.46;61.54;101491.75;5095718;28;20122;-73
2022/08/01 00:05:44;;;;;;;18.38;10.85;;;;;;;24.47;61.40;101498.94;5095030;28;20139;-73
2022/08/01 00:08:10;;;;;;;14.77;10.20;;;;;;;24.49;61.44;101498.75;5095522;28;20127;-74
2022/08/01 00:10:37;;;;;;;14.90;10.02;;;;;;;24.49;61.51;101499.63;5095273;28;20058;-74
2022/08/01 00:13:05;;;;;;;12.82;9.82;;;;;;;24.50;61.42;101493.09;5095343;28;20036;-73
2022/08/01 00:15:32;;;;;;;15.88;10.73;;;;;;;24.52;61.30;101498.38;5096544;28;20046;-73
2022/08/01 00:17:58;;;;;;;15.38;10.23;;;;;;;24.52;61.27;101499.25;5096527;28;20085;-74
2022/08/01 00:20:25;;;;;;;15.68;10.70;;;;;;;24.52;61.34;101499.25;5095250;28;20068;-74
2022/08/01 00:22:56;;;;;;;15.40;11.32;;;;;;;24.50;61.52;101498.56;5096315;28;20040;-75
2022/08/01 00:25:23;;;;;;;13.25;10.68;;;;;;;24.48;61.27;101503.41;5096128;28;20110;-74
2022/08/01 00:28:00;;;;;;;15.85;10.48;;;;;;;24.46;61.59;101505.47;5095124;28;20071;-74
2022/08/01 00:30:26;;;;;;;15.93;10.77;;;;;;;24.43;60.87;101508.59;5095088;28;20517;-74
2022/08/01 00:32:57;;;;;;;18.05;11.82;;;;;;;24.43;61.55;101499.50;5095897;28;20067;-74
2022/08/01 00:35:23;;;;;;;16.33;10.38;;;;;;;24.42;61.48;101506.03;5096242;28;20043;-73
2022/08/01 00:37:51;;;;;;;16.63;11.23;;;;;;;24.43;61.61;101500.34;5094935;28;20479;-74
2022/08/01 00:40:18;;;;;;;16.33;10.80;;;;;;;24.42;61.58;101504.13;5096084;28;20485;-74
2022/08/01 00:42:48;;;;;;;17.30;11.02;;;;;;;24.43;61.46;101499.50;5094870;28;20136;-75
2022/08/01 00:45:15;;;;;;;18.02;10.70;;;;;;;24.43;61.47;101499.50;5095451;27;20056;-74
2022/08/01 00:47:41;;;;;;;15.15;11.38;;;;;;;24.42;61.56;101503.28;5094734;28;20063;-75
2022/08/01 00:50:09;;;;;;;18.58;12.05;;;;;;;24.42;61.25;101504.13;5095904;28;20040;-75
2022/08/01 00:52:36;;;;;;;18.02;11.77;;;;;;;24.40;61.42;101500.72;5095952;28;20393;-76
2022/08/01 00:55:07;;;;;;;20.00;11.48;;;;;;;24.36;61.42;101510.34;5094538;28;20531;-76
2022/08/01 00:57:39;;;;;;;20.50;12.43;;;;;;;24.32;61.73;101515.34;5077918;28;20541;-76
2022/08/01 01:00:26;;;;;;;21.95;12.82;;;;;;;24.31;61.51;101516.41;5094975;28;20032;-74
2022/08/01 01:02:57;;;;;;;21.00;12.57;;;;;;;24.29;61.53;101507.50;5095197;28;20409;-74
2022/08/01 01:05:24;;;;;;;18.20;13.18;;;;;;;24.30;61.74;101514.69;5095426;28;20048;-74
2022/08/01 01:08:26;;;;;;;18.05;12.27;;;;;;;24.27;62.00;101514.19;5095347;28;20621;-74
2022/08/01 01:11:04;;;;;;;17.88;12.55;;;;;;;24.28;61.90;101510.41;5054165;28;20505;-74
2022/08/01 01:13:49;;;;;;;18.00;12.13;;;;;;;24.26;61.77;101512.47;5095289;28;20138;-74
2022/08/01 01:16:19;;;;;;;17.48;12.52;;;;;;;24.26;61.83;101512.47;5095262;28;20083;-73
2022/08/01 01:18:55;;;;;;;21.38;13.10;;;;;;;24.25;61.92;101513.50;5094096;28;20401;-73
2022/08/01 01:21:21;;;;;;;16.30;12.02;;;;;;;24.25;62.04;101517.09;5076985;28;20131;-74
2022/08/01 01:24:24;;;;;;;21.15;12.27;;;;;;;24.25;61.79;101519.84;5094689;28;20524;-74
2022/08/01 01:27:36;;;;;;;14.93;11.18;;;;;;;24.23;61.67;101529.28;5093591;28;20040;-73
2022/08/01 01:30:03;;;;;;;14.90;10.18;;;;;;;24.19;61.90;101519.72;5093613;28;20051;-73
2022/08/01 01:32:35;;;;;;;11.55;8.73;;;;;;;24.15;61.82;101521.13;5092979;28;20040;-73
2022/08/01 01:35:09;;;;;;;12.68;9.50;;;;;;;24.11;61.60;101519.75;5093668;28;20044;-73
2022/08/01 01:37:39;;;;;;;10.15;8.02;;;;;;;24.09;61.50;101520.81;5094339;28;20044;-73
2022/08/01 01:40:09;;;;;;;10.65;8.68;;;;;;;24.07;61.54;101520.13;5094393;28;20032;-74
2022/08/01 01:42:37;;;;;;;12.02;8.82;;;;;;;24.07;61.71;101511.03;5093961;28;20034;-74
2022/08/01 01:45:06;;;;;;;11.93;8.65;;;;;;;24.04;61.72;101514.16;5076322;28;20040;-73
2022/08/01 01:47:36;;;;;;;12.45;9.00;;;;;;;24.01;61.45;101515.38;5093090;28;20128;-74
2022/08/01 01:50:04;;;;;;;14.00;9.30;;;;;;;23.99;61.59;101509.19;5094194;28;20036;-74
2022/08/01 01:52:32;;;;;;;15.70;9.80;;;;;;;23.98;61.72;101504.75;5092477;28;20028;-74
2022/08/01 01:55:06;;;;;;;13.95;8.95;;;;;;;23.99;61.60;101509.19;5092931;28;20044;-73
2022/08/01 01:57:38;;;;;;;9.90;8.48;;;;;;;24.01;61.74;101511.75;5075884;28;20086;-73
2022/08/01 02:00:07;;;;;;;15.60;9.65;;;;;;;24.00;61.77;101505.44;5093647;27;20062;-73
2022/08/01 02:02:36;;;;;;;12.93;9.45;;;;;;;24.00;61.43;101507.31;5093443;28;20119;-73
2022/08/01 02:05:05;;;;;;;16.08;9.25;;;;;;;23.99;61.56;101514.69;5092447;28;20143;-74
2022/08/01 02:07:32;;;;;;;12.35;9.25;;;;;;;23.99;61.55;101511.94;5092481;28;20119;-74
2022/08/01 02:10:01;;;;;;;13.20;8.75;;;;;;;23.99;61.55;101522.06;5093425;28;20036;-74
2022/08/01 02:12:32;;;;;;;12.95;9.05;;;;;;;24.00;61.55;101518.28;5091682;28;20032;-75
2022/08/01 02:15:01;;;;;;;13.27;9.05;;;;;;;24.03;61.55;101516.03;5091784;27;20145;-73
2022/08/01 02:17:28;;;;;;;15.75;9.07;;;;;;;24.03;61.65;101518.78;5091771;28;20054;-73
2022/08/01 02:19:55;;;;;;;15.45;9.85;;;;;;;24.05;61.52;101513.13;5091824;28;20420;-74
2022/08/01 02:22:40;;;;;;;14.90;9.57;;;;;;;24.03;61.61;101521.53;5092941;28;20040;-74
2022/08/01 02:25:22;;;;;;;14.45;9.25;;;;;;;24.04;61.45;101512.25;5091662;28;20051;-74
2022/08/01 02:27:51;;;;;;;15.85;9.30;;;;;;;24.04;61.42;101517.75;5094004;28;20122;-74
2022/08/01 02:30:19;;;;;;;11.15;8.95;;;;;;;24.04;61.43;101514.16;5075843;28;20044;-74
2022/08/01 02:33:06;;;;;;;16.65;8.57;;;;;;;24.01;61.19;101515.38;5075622;28;20402;-74
2022/08/01 02:35:43;;;;;;;12.77;9.10;;;;;;;24.01;60.94;101517.25;5093989;28;20545;-74
2022/08/01 02:38:33;;;;;;;12.40;8.98;;;;;;;23.98;60.98;101517.63;5092807;28;20036;-74
2022/08/01 02:41:05;;;;;;;12.63;8.00;;;;;;;23.93;61.04;101520.91;5092249;28;20043;-74
2022/08/01 02:43:45;;;;;;;14.10;9.30;;;;;;;23.88;61.20;101514.25;5093364;28;20036;-73
2022/08/01 02:46:29;;;;;;;12.02;8.68;;;;;;;23.82;61.22;101517.69;5092267;28;20056;-74
2022/08/01 02:48:58;;;;;;;13.13;9.05;;;;;;;23.76;61.38;101514.59;5092402;28;20486;-74
2022/08/01 02:51:25;;;;;;;12.55;9.63;;;;;;;23.76;61.60;101516.50;5093382;28;20047;-74
2022/08/01 02:53:57;;;;;;;11.95;8.38;;;;;;;23.76;61.41;101514.59;5093248;28;20036;-74
2022/08/01 02:56:34;;;;;;;15.43;10.07;;;;;;;23.79;61.39;101518.06;5092028;28;20409;-73
2022/08/01 02:59:06;;;;;;;17.70;10.35;;;;;;;23.76;61.39;101513.75;5075433;28;20466;-74
2022/08/01 03:01:38;;;;;;;15.70;10.43;;;;;;;23.76;61.44;101511.00;5091981;28;20040;-74
2022/08/01 03:04:10;;;;;;;14.82;10.35;;;;;;;23.75;61.32;101509.31;5093483;28;20043;-74
2022/08/01 03:06:38;;;;;;;14.75;10.05;;;;;;;23.76;61.35;101513.75;5092879;28;20059;-74
2022/08/01 03:09:07;;;;;;;15.88;10.52;;;;;;;23.78;61.42;101506.19;5093151;28;20060;-74
2022/08/01 03:11:39;;;;;;;14.50;10.13;;;;;;;23.80;61.25;101512.41;5093044;28;20044;-74
2022/08/01 03:14:12;;;;;;;13.68;10.70;;;;;;;23.81;61.54;101511.38;5091994;28;20048;-74
2022/08/01 03:16:41;;;;;;;14.68;10.23;;;;;;;23.82;61.22;101506.72;5091752;28;20438;-75
2022/08/01 03:19:10;;;;;;;13.38;10.20;;;;;;;23.80;61.14;101503.31;5093203;28;20070;-74
2022/08/01 03:21:39;;;;;;;16.27;10.60;;;;;;;23.80;61.05;101504.16;5092850;28;20040;-74
2022/08/01 03:24:12;;;;;;;14.95;10.95;;;;;;;23.76;60.95;101514.59;5091803;28;20048;-73
2022/08/01 03:26:41;;;;;;;13.80;10.60;;;;;;;23.75;61.14;101515.66;5093044;28;20123;-74
2022/08/01 03:29:16;;;;;;;15.27;10.50;;;;;;;23.70;60.85;101515.31;5092813;27;20052;-74
2022/08/01 03:31:44;;;;;;;12.75;9.93;;;;;;;23.67;60.66;101514.81;5092374;28;20133;-73
2022/08/01 03:34:12;;;;;;;12.50;10.20;;;;;;;23.64;60.54;101517.94;5092837;28;20536;-73
2022/08/01 03:36:49;;;;;;;15.43;10.23;;;;;;;23.59;60.58;101523.94;5091490;28;20052;-73
2022/08/01 03:39:19;;;;;;;13.98;10.65;;;;;;;23.57;60.52;101520.53;5092878;28;20044;-73
2022/08/01 03:41:54;;;;;;;12.05;9.95;;;;;;;23.53;60.53;101523.78;5091246;28;20450;-73
2022/08/01 03:44:32;;;;;;;13.80;10.05;;;;;;;23.48;60.53;101529.78;5091588;28;20490;-73
2022/08/01 03:47:03;;;;;;;14.20;9.82;;;;;;;23.43;60.57;101527.56;5091359;28;20060;-73
2022/08/01 03:49:33;;;;;;;19.77;10.93;;;;;;;23.37;60.40;101531.00;5093182;28;20044;-72
2022/08/01 03:52:04;;;;;;;15.95;10.93;;;;;;;23.32;60.51;101529.84;5092471;28;20115;-73
2022/08/01 03:54:40;;;;;;;14.75;10.00;;;;;;;23.28;60.62;101533.97;5092731;28;20387;-73
2022/08/01 03:57:08;;;;;;;16.88;10.68;;;;;;;23.24;60.36;101540.81;5092638;27;20048;-72
2022/08/01 03:59:59;;;;;;;15.85;10.40;;;;;;;23.18;60.73;101533.28;5091258;28;20040;-73
2022/08/01 04:02:27;;;;;;;16.38;11.13;;;;;;;23.14;60.88;101546.50;5091025;28;20047;-73
2022/08/01 04:04:59;;;;;;;19.48;11.05;;;;;;;23.09;60.93;101540.69;5092623;28;20038;-74
2022/08/01 04:07:28;;;;;;;19.83;10.48;;;;;;;23.04;61.11;101541.19;5074209;28;20079;-73
2022/08/01 04:09:55;;;;;;;15.98;10.27;;;;;;;23.01;61.11;101541.50;5091100;28;20044;-74
2022/08/01 04:12:21;;;;;;;18.38;11.43;;;;;;;23.02;61.38;101545.09;5092022;28;20440;-73
2022/08/01 04:14:49;;;;;;;16.30;11.05;;;;;;;23.02;61.61;101543.22;5092452;28;20032;-73
2022/08/01 04:17:16;;;;;;;17.70;11.15;;;;;;;23.04;61.87;101541.19;5092329;28;20508;-73
2022/08/01 04:19:45;;;;;;;15.80;11.10;;;;;;;23.06;61.71;101543.75;5074190;28;20090;-73
2022/08/01 04:22:14;;;;;;;21.55;11.82;;;;;;;23.07;61.51;101545.47;5091976;28;20119;-73
2022/08/01 04:24:52;;;;;;;18.00;11.52;;;;;;;23.09;61.74;101548.91;5091224;28;20052;-73
2022/08/01 04:27:32;;;;;;;17.30;10.68;;;;;;;23.09;61.80;101549.75;5074693;28;20134;-73
2022/08/01 04:30:22;;;;;;;20.02;10.27;;;;;;;23.07;61.69;101548.22;5076535;28;20078;-74
2022/08/01 04:32:57;;;;;;;20.45;11.10;;;;;;;23.07;61.76;101548.22;5092071;28;20054;-74
2022/08/01 04:35:25;;;;;;;16.30;10.45;;;;;;;23.09;61.62;101551.63;5091490;28;20393;-73
2022/08/01 04:38:17;;;;;;;19.63;10.63;;;;;;;23.06;62.08;101549.25;5095780;28;20067;-74
2022/08/01 04:40:48;;;;;;;18.75;11.68;;;;;;;23.06;61.87;101544.63;5095193;28;20128;-73
2022/08/01 04:43:15;;;;;;;19.20;12.00;;;;;;;23.08;62.20;101560.88;5095748;28;20031;-74
2022/08/01 04:45:44;;;;;;;16.70;11.68;;;;;;;23.09;62.07;101552.50;5094336;28;20063;-74
2022/08/01 04:48:13;;;;;;;19.13;11.07;;;;;;;23.10;62.19;101556.09;5093804;28;20130;-74
2022/08/01 04:50:41;;;;;;;17.13;11.15;;;;;;;23.09;61.89;101557.13;5094926;28;20464;-74
2022/08/01 04:53:18;;;;;;;16.02;10.77;;;;;;;23.10;62.19;101561.56;5095200;28;20127;-73
2022/08/01 04:55:45;;;;;;;18.45;11.43;;;;;;;23.09;62.11;101562.59;5095091;28;20044;-73
2022/08/01 04:58:14;;;;;;;19.80;11.77;;;;;;;23.05;62.21;101558.50;5094875;28;20482;-73
2022/08/01 05:00:44;;;;;;;18.42;11.68;;;;;;;23.04;62.29;101556.78;5074425;28;20487;-73
2022/08/01 05:03:14;;;;;;;18.38;10.90;;;;;;;23.05;62.58;101553.00;5074631;28;20044;-73
2022/08/01 05:05:40;;;;;;;18.00;11.80;;;;;;;23.10;62.36;101556.94;5074215;28;20393;-74
2022/08/01 05:08:07;;;;;;;15.85;10.20;;;;;;;23.16;62.34;101563.63;5073117;28;20128;-74
2022/08/01 05:10:34;;;;;;;18.50;11.05;;;;;;;23.21;62.48;101561.22;5092450;28;20397;-74
2022/08/01 05:13:37;;;;;;;16.27;10.88;;;;;;;23.25;62.67;101562.56;5093020;28;20131;-74
2022/08/01 05:16:04;;;;;;;17.40;10.98;;;;;;;23.29;62.32;101561.19;5092930;28;20054;-73
2022/08/01 05:18:31;;;;;;;16.77;11.00;;;;;;;23.33;62.60;101565.28;5094055;28;20036;-74
2022/08/01 05:20:58;;;;;;;16.30;10.35;;;;;;;23.36;62.18;101564.94;5077003;28;20047;-74
2022/08/01 05:23:29;;;;;;;14.90;10.00;;;;;;;23.39;62.54;101563.75;5093687;28;20040;-73
2022/08/01 05:26:08;;;;;;;16.17;11.25;;;;;;;23.41;62.44;101576.22;5093377;28;20079;-74
2022/08/01 05:28:35;;;;;;;19.67;10.85;;;;;;;23.44;62.59;101570.41;5093610;28;20044;-73
2022/08/01 05:31:03;;;;;;;18.08;10.02;;;;;;;23.46;62.49;101572.97;5093045;28;20043;-73
2022/08/01 05:33:34;;;;;;;16.40;10.15;;;;;;;23.47;62.55;101574.69;5076477;28;20135;-73
2022/08/01 05:36:00;;;;;;;15.40;10.25;;;;;;;23.50;62.23;101576.22;5092657;28;20070;-74
2022/08/01 05:38:27;;;;;;;15.02;10.07;;;;;;;23.51;62.57;101577.91;5092618;28;20433;-73
2022/08/01 05:40:54;;;;;;;14.02;9.38;;;;;;;23.53;62.59;101579.47;5092694;28;20412;-73
2022/08/01 05:43:22;;;;;;;17.33;11.45;;;;;;;23.56;62.84;101578.28;5094274;28;20032;-74
2022/08/01 05:45:54;;;;;;;19.10;11.10;;;;;;;23.57;62.50;101577.25;5092748;28;20040;-74
2022/08/01 05:48:21;;;;;;;20.85;12.35;;;;;;;23.62;62.44;101588.53;5075812;28;20394;-74
2022/08/01 05:50:47;;;;;;;15.90;11.68;;;;;;;23.67;62.60;101589.72;5093964;28;20051;-74
2022/08/01 05:53:14;;;;;;;17.17;11.82;;;;;;;23.70;62.39;101592.13;5092769;28;20032;-74
2022/08/01 05:55:41;;;;;;;17.00;12.25;;;;;;;23.74;62.69;101589.88;5093630;28;20093;-74
2022/08/01 05:58:08;;;;;;;18.73;12.50;;;;;;;23.75;62.28;101594.34;5099720;28;20051;-74
2022/08/01 06:00:38;;;;;;;18.77;12.43;;;;;;;23.74;62.23;101589.88;5074449;28;20123;-74
2022/08/01 06:03:08;;;;;;;19.33;12.68;;;;;;;23.72;62.24;101586.47;5093878;28;20040;-74
2022/08/01 06:05:34;;;;;;;20.60;13.13;;;;;;;23.75;62.26;101586.97;5075251;28;20040;-74
2022/08/01 06:08:01;;;;;;;21.48;13.05;;;;;;;23.75;62.20;101578.72;5092430;28;20043;-76
2022/08/01 06:10:28;;;;;;;18.60;13.93;;;;;;;23.77;62.44;101582.16;5092003;28;20067;-72
2022/08/01 06:12:59;;;;;;;21.15;13.55;;;;;;;23.81;62.21;101590.91;5092168;28;20494;-77
2022/08/01 06:15:26;;;;;;;18.73;13.57;;;;;;;23.86;62.35;101590.38;5084308;28;20127;-75
2022/08/01 06:17:52;;;;;;;17.52;13.02;;;;;;;23.90;62.52;101592.59;5093708;28;20044;-75
2022/08/01 06:20:19;;;;;;;17.30;12.18;;;;;;;23.93;62.35;101591.38;5092417;28;20066;-75
2022/08/01 06:22:51;;;;;;;15.45;12.30;;;;;;;23.96;62.31;101591.03;5093781;28;20127;-76
2022/08/01 06:25:18;;;;;;;17.30;13.07;;;;;;;23.99;62.02;101594.25;5092409;28;20135;-76
2022/08/01 06:27:47;;;;;;;15.93;13.30;;;;;;;23.99;62.12;101598.91;5092365;28;20044;-75
2022/08/01 06:30:14;;;;;;;17.58;13.57;;;;;;;23.99;61.97;101604.38;5092199;28;20042;-76
2022/08/01 06:32:41;;;;;;;18.55;13.27;;;;;;;24.00;61.78;101604.19;5092075;28;20101;-75
2022/08/01 06:35:08;;;;;;;17.88;13.38;;;;;;;24.03;62.15;101601.09;5091886;28;20050;-75
2022/08/01 06:37:34;;;;;;;17.38;13.82;;;;;;;24.09;61.42;101605.03;5093114;28;20039;-74
2022/08/01 06:40:06;;;;;;;16.80;13.57;;;;;;;24.11;61.52;101599.34;5091943;28;20048;-75
2022/08/01 06:42:35;;;;;;;15.15;12.68;;;;;;;24.11;61.57;101600.22;5092066;28;20047;-77
2022/08/01 06:45:09;;;;;;;15.90;12.68;;;;;;;24.13;61.31;101600.03;5092018;28;20040;-76
2022/08/01 06:47:36;;;;;;;16.40;12.35;;;;;;;24.18;61.51;101616.81;5093135;28;20040;-75
2022/08/01 06:50:05;;;;;;;13.00;11.23;;;;;;;24.22;61.09;101615.41;5093128;28;20036;-73
2022/08/01 06:52:36;;;;;;;17.30;11.93;;;;;;;24.24;61.23;101616.09;5092046;28;20036;-77
2022/08/01 06:55:04;;;;;;;12.63;10.25;;;;;;;24.25;60.84;101606.81;5092905;28;20042;-76
2022/08/01 06:57:31;;;;;;;13.68;10.20;;;;;;;24.24;60.88;101613.34;5092374;28;20044;-76
2022/08/01 07:00:00;;;;;;;14.27;10.30;;;;;;;24.24;60.78;101618.84;5092236;27;20359;-77
2022/08/01 07:02:27;;;;;;;14.30;9.98;;;;;;;24.26;60.45;101612.13;5092061;28;20028;-72
2022/08/01 07:04:53;;;;;;;11.18;9.60;;;;;;;24.31;60.73;101617.97;5091441;28;20140;-75
2022/08/01 07:07:20;;;;;;;11.05;9.65;;;;;;;24.35;60.91;101623.94;5092762;28;20040;-76
2022/08/01 07:09:46;;;;;;;12.02;9.57;;;;;;;24.39;60.55;101617.06;5092733;28;20051;-76
2022/08/01 07:12:13;;;;;;;10.27;8.57;;;;;;;24.41;60.42;101620.50;5092641;28;20044;-76
2022/08/01 07:14:41;;;;;;;11.35;9.25;;;;;;;24.38;60.23;101618.09;5092426;28;20035;-76
2022/08/01 07:17:07;;;;;;;13.05;9.32;;;;;;;24.37;60.07;101613.66;5091134;28;20521;-74
2022/08/01 07:19:35;;;;;;;14.93;10.80;;;;;;;24.40;60.24;101622.38;5091599;28;20071;-74
2022/08/01 07:22:04;;;;;;;11.02;9.07;;;;;;;24.46;60.14;101619.94;5091273;28;20375;-74
2022/08/01 07:24:32;;;;;;;10.10;8.50;;;;;;;24.50;60.16;101622.16;5090273;28;20485;-74
2022/08/01 07:27:01;;;;;;;12.35;7.95;;;;;;;24.52;60.12;101616.47;5090323;28;20063;-74
2022/08/01 07:29:47;;;;;;;8.57;7.22;;;;;;;24.55;59.76;101627.13;5091120;28;20047;-74
2022/08/01 07:32:14;;;;;;;7.90;6.68;;;;;;;24.57;59.58;101625.91;5090157;28;20048;-74
2022/08/01 07:34:43;;;;;;;7.80;6.47;;;;;;;24.61;59.60;101629.16;5091515;28;20047;-75
2022/08/01 07:37:10;;;;;;;9.05;7.35;;;;;;;24.65;59.52;101631.34;5092142;28;20529;-74
2022/08/01 07:39:36;;;;;;;7.68;6.32;;;;;;;24.66;59.12;101630.31;5089762;28;20044;-73
2022/08/01 07:42:03;;;;;;;8.40;6.65;;;;;;;24.69;59.31;101634.59;5091249;28;20347;-72
2022/08/01 07:44:33;;;;;;;9.15;7.00;;;;;;;24.69;59.31;101632.69;5091284;27;20056;-72
2022/08/01 07:47:00;;;;;;;7.88;7.07;;;;;;;24.71;59.06;101629.75;5090077;28;20054;-72
2022/08/01 07:49:27;;;;;;;10.93;7.82;;;;;;;24.77;59.00;101630.94;5091171;28;20482;-72
2022/08/01 07:51:54;;;;;;;8.27;7.38;;;;;;;24.83;58.69;101636.53;5090945;28;20051;-75
2022/08/01 07:54:31;;;;;;;9.30;7.65;;;;;;;24.91;58.70;101635.63;5090614;28;20044;-75
2022/08/01 07:57:00;;;;;;;10.65;8.23;;;;;;;24.97;58.60;101640.38;5091812;28;20398;-74
2022/08/01 07:59:26;;;;;;;7.22;6.03;;;;;;;25.06;58.52;101642.06;5091771;28;20512;-75
2022/08/01 08:01:53;;;;;;;6.50;5.22;;;;;;;25.15;58.50;101643.69;5091225;28;20040;-75
2022/08/01 08:04:23;;;;;;;6.20;5.60;;;;;;;25.21;57.83;101647.59;5090681;28;20354;-74
2022/08/01 08:06:49;;;;;;;9.13;6.65;;;;;;;25.27;57.80;101644.13;5091396;27;20052;-75
2022/08/01 08:09:16;;;;;;;7.15;6.07;;;;;;;25.30;58.04;101649.28;5091119;28;20105;-75
2022/08/01 08:11:44;;;;;;;6.57;5.82;;;;;;;25.32;57.04;101656.28;5095242;28;20040;-74
2022/08/01 08:14:15;;;;;;;7.20;6.22;;;;;;;25.31;56.79;101649.09;5094438;28;20252;-75
2022/08/01 08:16:42;;;;;;;6.40;5.25;;;;;;;25.29;56.98;101645.66;5095567;28;20132;-75
2022/08/01 08:19:09;;;;;;;6.05;5.20;;;;;;;25.28;56.87;101649.44;5095864;28;20492;-76
2022/08/01 08:21:37;;;;;;;6.22;4.93;;;;;;;25.30;56.86;101649.28;5095552;28;20516;-75
2022/08/01 08:24:19;;;;;;;7.47;5.10;;;;;;;25.32;56.62;101653.53;5093587;28;20134;-75
2022/08/01 08:27:02;;;;;;;5.72;5.13;;;;;;;25.40;56.48;101649.00;5094419;28;20040;-76
2022/08/01 08:29:32;;;;;;;6.30;5.32;;;;;;;25.48;56.52;101652.53;5077280;28;20048;-76
2022/08/01 08:32:00;;;;;;;5.47;4.97;;;;;;;25.55;56.65;101647.13;5094236;28;20040;-76
2022/08/01 08:34:28;;;;;;;6.07;5.05;;;;;;;25.58;56.25;101650.38;5093804;28;20044;-76
2022/08/01 08:36:56;;;;;;;5.07;4.25;;;;;;;25.60;56.08;101648.28;5093969;28;20252;-75
2022/08/01 08:39:25;;;;;;;3.40;3.10;;;;;;;25.64;56.29;101648.75;5094828;28;20036;-76
2022/08/01 08:41:52;;;;;;;3.72;2.25;;;;;;;25.69;56.01;101650.97;5093665;28;20527;-76
2022/08/01 08:44:45;;;;;;;2.03;1.42;;;;;;;25.72;55.64;101651.44;5095343;28;20505;-76
2022/08/01 08:47:13;;;;;;;2.15;1.20;;;;;;;25.82;55.82;101660.28;5095283;28;20058;-77
2022/08/01 08:49:45;;;;;;;1.90;1.42;;;;;;;25.90;55.46;101657.44;5093714;28;20040;-78
2022/08/01 08:52:17;;;;;;;2.60;1.48;;;;;;;25.98;55.30;101650.97;5094216;28;20052;-78
2022/08/01 08:54:45;;;;;;;2.00;1.55;;;;;;;26.02;55.03;101656.97;5094864;28;20489;-77
2022/08/01 08:57:14;;;;;;;2.13;1.25;;;;;;;26.04;54.81;101660.41;5094566;28;20056;-77
2022/08/01 08:59:43;;;;;;;2.92;1.63;;;;;;;26.06;54.64;101658.31;5094739;28;20119;-78
2022/08/01 09:02:10;;;;;;;2.22;1.50;;;;;;;26.10;54.95;101659.63;5094125;28;20561;-77
2022/08/01 09:04:41;;;;;;;2.08;1.67;;;;;;;26.20;54.84;101658.28;5092067;28;20440;-77
2022/08/01 09:07:08;;;;;;;2.60;2.10;;;;;;;26.38;54.53;101662.56;5094204;28;20502;-77
2022/08/01 09:09:37;;;;;;;3.03;1.63;;;;;;;26.55;54.52;101664.91;5093903;28;20490;-77
2022/08/01 09:12:08;;;;;;;2.10;1.58;;;;;;;26.74;54.05;101668.06;5110083;28;20044;-77
2022/08/01 09:14:45;;;;;;;1.92;1.63;;;;;;;26.82;53.73;101665.22;5094320;28;20036;-77
2022/08/01 09:17:12;;;;;;;3.15;1.85;;;;;;;26.92;53.67;101661.09;5092939;28;20036;-77
2022/08/01 09:19:43;;;;;;;3.78;1.40;;;;;;;27.00;53.09;101667.56;5094066;28;20126;-70
2022/08/01 09:22:17;;;;;;;2.33;1.30;;;;;;;27.11;52.96;101673.41;5093528;28;20516;-77
2022/08/01 09:24:58;;;;;;;3.40;1.35;;;;;;;27.23;52.75;101677.34;5075599;28;20514;-80
2022/08/01 09:27:25;;;;;;;1.90;1.20;;;;;;;27.36;52.32;101670.22;5094177;28;20059;-79
2022/08/01 09:29:53;;;;;;;1.25;1.13;;;;;;;27.51;52.21;101673.78;5093893;28;20082;-78
2022/08/01 09:32:29;;;;;;;2.33;1.38;;;;;;;27.64;51.76;101671.16;5093663;28;20040;-78
2022/08/01 09:35:27;;;;;;;3.33;1.30;;;;;;;27.80;51.37;101668.06;5092436;28;20440;-78
2022/08/01 09:38:19;;;;;;;1.77;0.88;;;;;;;27.98;51.19;101674.97;5092813;28;20425;-78
2022/08/01 09:40:54;;;;;;;2.05;1.00;;;;;;;28.10;51.06;101668.69;5092517;28;20063;-78
2022/08/01 09:43:29;;;;;;;0.98;0.85;;;;;;;28.19;50.49;101674.88;5093697;28;20044;-78
2022/08/01 09:45:58;;;;;;;1.33;0.90;;;;;;;28.22;50.10;101677.22;5093470;28;20482;-77
2022/08/01 09:48:24;;;;;;;1.67;0.93;;;;;;;28.27;49.91;101676.69;5093493;28;20040;-78
2022/08/01 09:50:55;;;;;;;1.35;0.90;;;;;;;28.32;49.87;101674.16;5092277;28;20040;-78
2022/08/01 09:53:47;;;;;;;1.63;0.98;;;;;;;28.36;49.21;101676.31;5092601;28;20101;-79
2022/08/01 09:56:20;;;;;;;1.27;0.75;;;;;;;28.40;49.08;101668.44;5094774;28;20028;-79
2022/08/01 09:58:50;;;;;;;1.23;1.00;;;;;;;28.48;49.38;101669.13;5093263;28;20485;-79
2022/08/01 10:01:25;;;;;;;1.20;0.90;;;;;;;28.56;49.10;101675.53;5093320;28;20035;-78
2022/08/01 10:04:15;;;;;;;1.60;0.90;;;;;;;28.64;48.60;101683.63;5093028;28;20044;-78
2022/08/01 10:06:45;;;;;;;1.30;0.90;;;;;;;28.74;48.53;101673.88;5092766;28;20044;-78
2022/08/01 10:09:13;;;;;;;1.50;0.90;;;;;;;28.80;47.90;101677.72;5092960;28;20135;-78
2022/08/01 10:11:43;;;;;;;1.55;0.88;;;;;;;28.90;47.53;101675.44;5091727;28;20047;-79
2022/08/01 10:14:19;;;;;;;0.95;0.60;;;;;;;28.95;47.12;101680.34;5093343;28;20398;-80
2022/08/01 10:16:47;;;;;;;1.40;0.80;;;;;;;28.90;46.91;101675.44;5092253;27;20052;-78
2022/08/01 10:19:23;;;;;;;1.67;0.60;;;;;;;28.94;47.04;101675.88;5092507;28;20046;-78
2022/08/01 10:21:53;;;;;;;1.92;0.60;;;;;;;29.00;46.72;101683.34;5091442;28;20397;-77
2022/08/01 10:24:28;;;;;;;0.80;0.60;;;;;;;29.01;46.62;101687.81;5092299;28;20063;-78
2022/08/01 10:27:02;;;;;;;1.45;0.70;;;;;;;28.95;46.64;101686.72;5092612;28;20047;-76
2022/08/01 10:29:36;;;;;;;1.00;0.70;;;;;;;28.94;46.66;101695.22;5092519;28;20044;-76
2022/08/01 10:32:23;;;;;;;1.65;0.82;;;;;;;28.89;46.53;101693.09;5093153;28;20036;-75
2022/08/01 10:35:00;;;;;;;2.25;0.80;;;;;;;28.86;46.43;101687.97;5093013;28;20119;-78
2022/08/01 10:37:35;;;;;;;1.45;0.95;;;;;;;28.86;46.12;101685.22;5093853;28;20047;-78
2022/08/01 10:40:18;;;;;;;2.17;0.80;;;;;;;28.85;46.46;101694.56;5093543;28;20460;-77
2022/08/01 10:43:02;;;;;;;1.38;0.90;;;;;;;28.80;46.50;101694.31;5077481;28;20040;-79
2022/08/01 10:45:29;;;;;;;0.90;0.65;;;;;;;28.73;46.40;101691.53;5100475;28;20040;-80
2022/08/01 10:48:15;;;;;;;1.23;0.70;;;;;;;28.67;46.31;101691.50;5092084;28;20081;-79
2022/08/01 10:50:49;;;;;;;1.40;0.93;;;;;;;28.61;46.46;101684.03;5092935;28;20490;-81
2022/08/01 10:53:19;;;;;;;2.78;1.00;;;;;;;28.51;46.41;101692.72;5070652;28;20083;-80
2022/08/01 10:56:00;;;;;;;1.38;1.15;;;;;;;28.45;46.44;101690.78;5105584;28;20078;-81
2022/08/01 10:58:37;;;;;;;3.38;1.40;;;;;;;28.34;46.52;101688.63;5096433;28;20036;-78
2022/08/01 11:01:22;;;;;;;1.50;1.40;;;;;;;28.20;46.76;101698.69;5091659;28;20044;-80
2022/08/01 11:03:55;;;;;;;1.73;1.30;;;;;;;28.08;47.33;101692.88;5091047;28;20038;-79
2022/08/01 11:06:32;;;;;;;1.85;1.10;;;;;;;28.00;47.18;101704.09;5091114;28;20107;-80
2022/08/01 11:09:04;;;;;;;2.10;0.88;;;;;;;27.91;47.57;101699.78;5091444;28;20050;-81
2022/08/01 11:11:32;;;;;;;1.38;0.98;;;;;;;27.82;47.58;101710.13;5092338;28;20040;-80
2022/08/01 11:14:14;;;;;;;1.05;0.93;;;;;;;27.79;47.79;101717.97;5075835;28;20439;-80
2022/08/01 11:16:41;;;;;;;2.13;0.75;;;;;;;27.77;47.87;101717.31;5091622;28;20040;-80
2022/08/01 11:19:08;;;;;;;0.70;0.60;;;;;;;27.80;47.80;101722.44;5091884;28;20498;-80
2022/08/01 11:21:56;;;;;;;1.23;0.88;;;;;;;27.83;47.61;101720.13;5092835;28;20047;-79
2022/08/01 11:24:45;;;;;;;1.23;0.60;;;;;;;27.87;47.57;101728.00;5092172;28;20044;-77
2022/08/01 11:27:21;;;;;;;1.42;0.80;;;;;;;27.87;47.50;101719.72;5092792;28;20082;-78
2022/08/01 11:30:07;;;;;;;1.45;0.70;;;;;;;27.80;47.35;101715.00;5093003;28;20067;-80
2022/08/01 11:32:56;;;;;;;1.75;0.80;;;;;;;27.78;47.13;101717.13;5091607;28;20082;-79
2022/08/01 11:36:12;;;;;;;2.83;0.85;;;;;;;27.77;47.25;101726.44;5092593;28;20058;-77
2022/08/01 11:38:44;;;;;;;2.90;0.70;;;;;;;27.79;47.12;101729.88;5091379;28;20115;-81